Time;durP1;ratioP1;P1;durP2;ratioP2;P2;SDS_P1;SDS_P2;PMS_P1;PMS_P2;Temp;Humidity;BMP_temperature;BMP_pressure;BME280_temperature;BME280_humidity;BME280_pressure;Samples;Min_cycle;Max_cycle;Signal;HPM_P1;HPM_P2
2021/11/09 00:00:24;;;;;;;4.35;3.30;;;16.00;90.80;;;;;;4225657;28;20074;-53
2021/11/09 00:02:47;;;;;;;7.07;2.90;;;16.00;90.80;;;;;;4224518;28;20104;-48
2021/11/09 00:05:12;;;;;;;3.33;3.13;;;16.00;90.90;;;;;;4225551;28;20414;-49
2021/11/09 00:07:39;;;;;;;4.90;3.20;;;16.00;90.80;;;;;;4209867;28;20052;-50
2021/11/09 00:10:06;;;;;;;4.72;3.10;;;16.00;90.90;;;;;;4225568;28;20493;-49
2021/11/09 00:12:32;;;;;;;3.80;3.40;;;16.00;91.00;;;;;;4224330;28;20074;-52
2021/11/09 00:14:56;;;;;;;3.50;3.20;;;16.00;91.10;;;;;;4221674;28;20062;-54
2021/11/09 00:17:18;;;;;;;4.13;3.42;;;16.00;91.10;;;;;;4208588;28;20449;-53
2021/11/09 00:19:40;;;;;;;5.68;3.55;;;16.00;91.20;;;;;;4210037;28;20052;-54
2021/11/09 00:22:03;;;;;;;4.68;3.17;;;16.00;91.20;;;;;;4208138;28;20474;-53
2021/11/09 00:24:26;;;;;;;3.45;3.15;;;16.00;91.30;;;;;;4204204;28;20137;-53
2021/11/09 00:26:48;;;;;;;6.47;3.22;;;15.90;91.20;;;;;;4208559;28;20040;-53
2021/11/09 00:29:10;;;;;;;4.63;3.28;;;15.90;91.20;;;;;;4207993;28;20117;-53
2021/11/09 00:31:34;;;;;;;6.38;3.55;;;15.90;91.20;;;;;;4208052;28;20056;-52
2021/11/09 00:33:55;;;;;;;9.93;3.92;;;15.90;91.10;;;;;;4208145;28;20054;-53
2021/11/09 00:36:18;;;;;;;3.67;3.38;;;15.90;91.20;;;;;;4208874;28;20059;-54
2021/11/09 00:38:40;;;;;;;3.65;3.35;;;15.90;91.50;;;;;;4208272;28;20050;-54
2021/11/09 00:41:03;;;;;;;5.20;3.58;;;15.90;91.10;;;;;;4208087;28;20390;-54
2021/11/09 00:43:25;;;;;;;4.70;3.47;;;15.90;91.10;;;;;;4205731;28;20059;-54
2021/11/09 00:45:48;;;;;;;3.60;3.30;;;15.90;91.10;;;;;;4224406;28;20528;-48
2021/11/09 00:48:11;;;;;;;5.47;4.35;;;15.90;91.10;;;;;;4224897;28;20093;-53
2021/11/09 00:50:35;;;;;;;3.55;3.17;;;15.90;91.10;;;;;;4224776;28;20043;-54
2021/11/09 00:52:58;;;;;;;4.43;4.03;;;15.90;91.20;;;;;;4224383;28;20048;-52
2021/11/09 00:55:21;;;;;;;4.20;3.67;;;15.90;91.10;;;;;;4224545;28;20051;-49
2021/11/09 00:57:43;;;;;;;4.15;3.00;;;15.80;91.50;;;;;;4224788;28;20043;-51
2021/11/09 01:00:08;;;;;;;4.35;3.58;;;15.80;91.10;;;;;;4224872;28;20051;-51
2021/11/09 01:02:30;;;;;;;3.15;2.88;;;15.80;91.00;;;;;;4217822;28;20054;-54
2021/11/09 01:04:53;;;;;;;5.97;3.08;;;15.80;91.10;;;;;;4207909;28;20134;-53
2021/11/09 01:07:15;;;;;;;3.40;3.10;;;15.80;91.10;;;;;;4207938;28;20063;-53
2021/11/09 01:09:38;;;;;;;3.13;2.88;;;15.80;91.10;;;;;;4207759;28;20048;-54
2021/11/09 01:12:00;;;;;;;6.63;3.70;;;15.80;91.20;;;;;;4207578;28;20048;-53
2021/11/09 01:14:23;;;;;;;8.90;3.65;;;15.80;91.20;;;;;;4207675;28;20062;-51
2021/11/09 01:16:46;;;;;;;3.58;2.83;;;15.80;91.20;;;;;;4191347;28;20056;-54
2021/11/09 01:19:08;;;;;;;4.88;2.97;;;15.80;91.20;;;;;;4191053;28;20056;-53
2021/11/09 01:21:32;;;;;;;5.47;3.30;;;15.80;91.30;;;;;;4190915;28;20048;-54
2021/11/09 01:23:55;;;;;;;7.03;3.53;;;15.80;91.20;;;;;;4190700;28;20048;-52
2021/11/09 01:26:18;;;;;;;7.10;3.63;;;15.70;91.20;;;;;;4191105;28;20063;-52
2021/11/09 01:28:42;;;;;;;5.93;3.55;;;15.70;91.30;;;;;;4190758;28;20139;-54
2021/11/09 01:31:04;;;;;;;9.32;3.70;;;15.70;91.40;;;;;;4190733;28;20060;-51
2021/11/09 01:33:27;;;;;;;8.88;3.83;;;15.70;91.40;;;;;;4190943;28;20044;-54
2021/11/09 01:35:49;;;;;;;6.57;3.58;;;15.70;91.40;;;;;;4202386;28;20050;-54
2021/11/09 01:38:13;;;;;;;6.50;3.92;;;15.70;91.40;;;;;;4224642;28;20551;-53
2021/11/09 01:40:35;;;;;;;5.85;3.30;;;15.70;91.30;;;;;;4224379;28;20770;-53
2021/11/09 01:42:59;;;;;;;7.28;3.80;;;15.70;91.40;;;;;;4224023;28;20063;-52
2021/11/09 01:45:22;;;;;;;5.70;2.95;;;15.70;91.40;;;;;;4224152;28;20541;-52
2021/11/09 01:47:45;;;;;;;4.13;2.80;;;15.70;91.50;;;;;;4224161;28;20535;-50
2021/11/09 01:50:10;;;;;;;8.02;3.42;;;15.70;91.60;;;;;;4223973;28;20043;-53
2021/11/09 01:52:32;;;;;;;4.45;2.97;;;15.60;91.50;;;;;;4223720;28;20043;-49
2021/11/09 01:54:55;;;;;;;5.60;3.25;;;15.60;91.60;;;;;;4224147;28;20173;-52
2021/11/09 01:57:18;;;;;;;5.45;3.00;;;15.60;91.40;;;;;;4224157;28;20044;-52
2021/11/09 01:59:40;;;;;;;6.63;2.67;;;15.60;91.90;;;;;;4224177;28;20059;-54
2021/11/09 02:02:03;;;;;;;4.93;3.25;;;15.60;91.50;;;;;;4223618;28;20047;-51
2021/11/09 02:04:26;;;;;;;6.35;2.83;;;15.60;91.50;;;;;;4215215;28;20043;-52
2021/11/09 02:06:48;;;;;;;5.30;2.88;;;15.60;91.50;;;;;;4207857;28;20141;-52
2021/11/09 02:09:12;;;;;;;3.72;2.47;;;15.60;91.50;;;;;;4224156;28;20047;-53
2021/11/09 02:11:36;;;;;;;7.97;3.03;;;15.60;91.50;;;;;;4224091;28;20052;-54
2021/11/09 02:13:58;;;;;;;9.65;3.25;;;15.60;91.60;;;;;;4224141;28;20390;-52
2021/11/09 02:16:22;;;;;;;4.22;3.08;;;15.60;91.50;;;;;;4224171;28;20060;-51
2021/11/09 02:18:44;;;;;;;5.68;3.03;;;15.60;91.40;;;;;;4224094;28;20108;-54
2021/11/09 02:21:11;;;;;;;5.65;2.80;;;15.60;91.40;;;;;;4222208;28;20459;-53
2021/11/09 02:23:34;;;;;;;6.50;3.67;;;15.60;91.20;;;;;;4224175;28;20088;-52
2021/11/09 02:25:57;;;;;;;5.47;2.90;;;15.50;91.30;;;;;;4207448;28;20071;-52
2021/11/09 02:28:19;;;;;;;7.45;3.15;;;15.50;91.40;;;;;;4207616;28;20052;-52
2021/11/09 02:30:41;;;;;;;7.13;3.13;;;15.50;91.30;;;;;;4223905;28;20047;-54
2021/11/09 02:33:04;;;;;;;4.30;3.35;;;15.50;91.30;;;;;;4223483;28;20093;-54
2021/11/09 02:35:26;;;;;;;4.28;3.03;;;15.50;91.30;;;;;;4223160;28;20080;-53
2021/11/09 02:37:50;;;;;;;9.95;3.80;;;15.50;91.40;;;;;;4223587;28;20091;-51
2021/11/09 02:40:13;;;;;;;7.00;3.03;;;15.50;91.30;;;;;;4224079;28;20123;-52
2021/11/09 02:42:40;;;;;;;6.32;2.88;;;15.50;91.30;;;;;;4223859;28;20167;-52
2021/11/09 02:45:09;;;;;;;5.72;2.78;;;15.50;91.20;;;;;;4223973;28;20052;-51
2021/11/09 02:47:33;;;;;;;4.35;2.80;;;15.50;91.30;;;;;;4209039;28;20105;-53
2021/11/09 02:49:59;;;;;;;5.97;3.17;;;15.50;91.30;;;;;;4209935;28;20054;-52
2021/11/09 02:52:22;;;;;;;5.80;3.15;;;15.50;91.40;;;;;;4210275;28;20067;-50
2021/11/09 02:54:48;;;;;;;6.70;3.38;;;15.40;91.20;;;;;;4211501;28;20051;-52
2021/11/09 02:57:19;;;;;;;6.03;2.97;;;15.50;91.30;;;;;;4209917;28;20058;-53
2021/11/09 02:59:48;;;;;;;2.78;2.45;;;15.40;91.30;;;;;;4209764;28;20142;-51
2021/11/09 03:02:18;;;;;;;3.65;2.83;;;15.40;91.70;;;;;;4209717;28;20388;-53
2021/11/09 03:04:52;;;;;;;4.47;2.53;;;15.50;91.80;;;;;;4209991;28;20074;-53
2021/11/09 03:07:25;;;;;;;6.03;2.70;;;15.60;91.90;;;;;;4226384;28;20130;-54
2021/11/09 03:09:54;;;;;;;6.70;2.97;;;15.70;91.70;;;;;;4225677;28;20113;-50
2021/11/09 03:12:17;;;;;;;5.22;2.67;;;15.90;91.40;;;;;;4225745;28;20054;-53
2021/11/09 03:14:40;;;;;;;6.88;2.67;;;15.90;91.20;;;;;;4226050;28;20051;-52
2021/11/09 03:17:11;;;;;;;6.25;3.28;;;16.00;91.00;;;;;;4226461;28;20067;-52
2021/11/09 03:19:37;;;;;;;5.60;3.40;;;16.00;90.90;;;;;;4209582;28;20051;-54
2021/11/09 03:40:55;;;;;;;5.55;2.72;;;15.90;91.00;;;;;;4223839;28;20043;-54
2021/11/09 03:45:56;;;;;;;7.07;3.22;;;15.90;90.90;;;;;;4167988;28;20048;-54
2021/11/09 03:48:18;;;;;;;8.77;3.67;;;15.90;91.10;;;;;;4192365;28;20522;-54
2021/11/09 03:50:42;;;;;;;8.25;3.17;;;15.90;91.00;;;;;;4192504;28;20494;-53
2021/11/09 03:53:08;;;;;;;8.35;3.08;;;16.00;90.80;;;;;;4207137;28;20050;-52
2021/11/09 03:55:40;;;;;;;6.05;3.40;;;16.00;90.50;;;;;;4209230;28;20151;-53
2021/11/09 03:58:07;;;;;;;4.35;3.00;;;16.10;90.40;;;;;;4225091;28;20454;-51
2021/11/09 04:00:34;;;;;;;9.52;3.72;;;16.10;90.50;;;;;;4225905;28;20121;-53
2021/11/09 04:03:00;;;;;;;7.55;3.80;;;16.10;90.70;;;;;;4224766;28;20054;-50
2021/11/09 04:05:27;;;;;;;8.98;3.50;;;16.10;90.40;;;;;;4225061;28;20459;-53
2021/11/09 04:07:58;;;;;;;8.23;3.30;;;16.10;90.30;;;;;;4225446;28;20538;-51
2021/11/09 04:10:29;;;;;;;10.27;3.53;;;16.10;90.40;;;;;;4225440;28;20070;-53
2021/11/09 04:13:04;;;;;;;5.70;2.97;;;16.10;90.40;;;;;;4225102;28;20050;-54
2021/11/09 04:15:48;;;;;;;8.40;3.75;;;16.10;90.30;;;;;;4208482;28;20068;-54
2021/11/09 04:18:28;;;;;;;6.65;3.40;;;16.00;90.40;;;;;;4193031;28;20052;-54
2021/11/09 04:21:01;;;;;;;8.90;3.78;;;16.00;90.40;;;;;;4193059;28;20044;-52
2021/11/09 04:23:55;;;;;;;8.77;3.58;;;16.00;90.50;;;;;;4192651;28;20056;-54
2021/11/09 04:29:06;;;;;;;4.55;2.95;;;15.90;90.60;;;;;;4208293;28;20491;-52
2021/11/09 04:31:48;;;;;;;7.60;3.22;;;15.80;90.50;;;;;;4207765;28;20493;-50
2021/11/09 04:40:13;;;;;;;6.65;3.60;;;15.70;90.70;;;;;;4224965;28;20051;-51
2021/11/09 04:53:51;;;;;;;9.00;4.03;;;15.70;91.00;;;;;;4140144;28;20080;-53
2021/11/09 05:01:50;;;;;;;7.30;4.07;;;15.90;90.60;;;;;;4207835;28;20482;-52
2021/11/09 05:09:35;;;;;;;8.02;3.80;;;16.00;90.20;;;;;;4222628;28;20047;-51
2021/11/09 05:11:58;;;;;;;7.18;3.28;;;16.00;90.30;;;;;;4214520;28;20458;-54
2021/11/09 05:14:20;;;;;;;7.95;3.88;;;16.00;90.40;;;;;;4209221;28;20477;-51
2021/11/09 05:16:43;;;;;;;9.60;4.03;;;16.00;90.30;;;;;;4224291;28;20039;-53
2021/11/09 05:19:05;;;;;;;9.27;3.35;;;16.00;90.20;;;;;;4224487;28;20131;-54
2021/11/09 05:21:28;;;;;;;7.28;3.47;;;16.00;90.20;;;;;;4224399;28;20063;-54
2021/11/09 05:23:51;;;;;;;9.10;4.05;;;15.90;90.30;;;;;;4224798;28;20131;-54
2021/11/09 05:26:14;;;;;;;5.50;3.30;;;16.00;90.10;;;;;;4224610;28;20456;-54
2021/11/09 05:28:36;;;;;;;8.70;3.75;;;16.10;90.00;;;;;;4224456;28;20054;-52
2021/11/09 05:30:58;;;;;;;10.05;3.60;;;16.10;90.00;;;;;;4222439;28;20504;-53
2021/11/09 05:33:22;;;;;;;6.60;3.08;;;16.10;89.80;;;;;;4207316;28;20056;-50
2021/11/09 05:35:45;;;;;;;9.73;3.95;;;16.10;90.00;;;;;;4224407;28;20066;-54
2021/11/09 05:38:08;;;;;;;8.32;3.65;;;16.10;89.60;;;;;;4224137;28;20054;-50
2021/11/09 05:40:35;;;;;;;8.27;3.90;;;16.10;89.70;;;;;;4224614;28;20489;-53
2021/11/09 05:42:58;;;;;;;8.48;3.63;;;16.10;89.50;;;;;;4223561;28;20063;-55
2021/11/09 05:45:19;;;;;;;7.80;3.78;;;16.10;89.80;;;;;;4224321;28;20135;-51
2021/11/09 05:47:42;;;;;;;11.60;5.60;;;16.10;89.80;;;;;;4224149;28;20082;-53
2021/11/09 05:50:05;;;;;;;10.80;5.30;;;16.10;89.60;;;;;;4224412;28;20524;-53
2021/11/09 05:52:27;;;;;;;8.10;4.65;;;16.20;89.60;;;;;;4222984;28;20488;-52
2021/11/09 05:54:50;;;;;;;13.00;5.30;;;16.10;89.40;;;;;;4224405;28;20553;-53
2021/11/09 05:57:14;;;;;;;8.95;5.22;;;16.10;89.40;;;;;;4224099;28;20130;-54
2021/11/09 05:59:36;;;;;;;13.75;5.50;;;16.20;89.70;;;;;;4224109;28;20047;-50
2021/11/09 06:01:58;;;;;;;10.13;4.45;;;16.20;90.10;;;;;;4224840;28;20135;-55
2021/11/09 06:04:20;;;;;;;9.00;4.80;;;16.20;89.10;;;;;;4224185;28;20055;-53
2021/11/09 06:06:42;;;;;;;8.93;4.82;;;16.30;89.00;;;;;;4207024;28;20407;-57
2021/11/09 06:09:04;;;;;;;11.98;5.20;;;16.30;88.40;;;;;;4209138;28;20627;-52
2021/11/09 06:11:26;;;;;;;11.05;4.82;;;16.30;88.40;;;;;;4207286;28;20135;-54
2021/11/09 06:13:50;;;;;;;12.60;5.40;;;16.30;88.40;;;;;;4223666;28;20443;-54
2021/11/09 06:16:13;;;;;;;10.00;4.80;;;16.30;88.50;;;;;;4224044;28;20115;-52
2021/11/09 06:18:37;;;;;;;10.82;4.88;;;16.30;88.40;;;;;;4223946;28;20433;-53
2021/11/09 06:20:59;;;;;;;11.63;4.68;;;16.30;88.40;;;;;;4223883;28;20047;-53
2021/11/09 06:23:21;;;;;;;17.48;4.68;;;16.30;88.40;;;;;;4210443;28;20063;-51
2021/11/09 06:25:45;;;;;;;11.57;5.07;;;16.30;88.40;;;;;;4210681;28;20044;-50
2021/11/09 06:28:07;;;;;;;11.68;4.75;;;16.20;88.10;;;;;;4211106;28;20517;-52
2021/11/09 06:30:31;;;;;;;13.15;4.63;;;16.20;88.40;;;;;;4210671;28;20056;-53
2021/11/09 06:32:53;;;;;;;13.23;5.30;;;16.20;88.30;;;;;;4210695;28;20055;-52
2021/11/09 06:35:15;;;;;;;9.05;3.90;;;16.20;88.20;;;;;;4193797;28;20049;-54
2021/11/09 06:37:37;;;;;;;12.63;4.68;;;16.20;88.40;;;;;;4192625;28;20105;-50
2021/11/09 06:39:59;;;;;;;9.50;5.40;;;16.20;88.10;;;;;;4178036;28;20040;-52
2021/11/09 06:42:22;;;;;;;11.65;5.28;;;16.20;88.20;;;;;;4193911;28;20135;-53
2021/11/09 06:44:43;;;;;;;12.65;5.40;;;16.20;88.30;;;;;;4193686;28;20133;-52
2021/11/09 06:47:07;;;;;;;11.70;5.53;;;16.20;88.30;;;;;;4193660;28;20048;-51
2021/11/09 06:49:29;;;;;;;10.00;5.28;;;16.20;88.20;;;;;;4193156;28;20455;-55
2021/11/09 06:51:52;;;;;;;12.38;4.97;;;16.20;89.10;;;;;;4193676;28;20695;-54
2021/11/09 06:54:15;;;;;;;11.68;5.28;;;16.30;88.50;;;;;;4193338;28;20056;-54
2021/11/09 06:56:37;;;;;;;12.18;5.90;;;16.40;87.40;;;;;;4193340;28;20049;-50
2021/11/09 06:58:59;;;;;;;10.68;5.75;;;16.40;86.60;;;;;;4200906;28;20048;-53
2021/11/09 07:01:22;;;;;;;12.70;5.40;;;16.50;86.20;;;;;;4203533;27;20072;-52
2021/11/09 07:03:45;;;;;;;10.30;4.50;;;16.40;85.50;;;;;;4209985;28;20097;-55
2021/11/09 07:06:07;;;;;;;15.27;5.60;;;16.50;85.70;;;;;;4210111;28;20113;-52
2021/11/09 07:08:29;;;;;;;12.90;5.35;;;16.40;85.10;;;;;;4209940;28;20067;-53
2021/11/09 07:10:51;;;;;;;11.90;5.72;;;16.40;84.80;;;;;;4210291;28;20713;-53
2021/11/09 07:13:13;;;;;;;12.25;5.18;;;16.40;85.00;;;;;;4193563;28;20407;-52
2021/11/09 07:15:36;;;;;;;13.68;5.93;;;16.30;85.00;;;;;;4204559;28;20054;-52
2021/11/09 07:17:58;;;;;;;8.55;5.40;;;16.20;84.70;;;;;;4205059;28;20398;-53
2021/11/09 07:20:22;;;;;;;13.00;5.65;;;16.20;85.00;;;;;;4209437;28;20052;-50
2021/11/09 07:22:46;;;;;;;12.00;5.88;;;16.20;84.50;;;;;;4209870;28;20050;-53
2021/11/09 07:25:10;;;;;;;10.02;5.20;;;16.10;84.20;;;;;;4209775;28;20081;-47
2021/11/09 07:27:33;;;;;;;15.40;5.22;;;16.10;84.70;;;;;;4210977;28;20128;-50
2021/11/09 07:29:56;;;;;;;12.00;5.03;;;16.00;84.70;;;;;;4209341;28;20089;-52
2021/11/09 07:32:21;;;;;;;12.82;5.43;;;16.00;84.40;;;;;;4209404;28;20417;-53
2021/11/09 07:34:43;;;;;;;10.60;5.05;;;15.90;84.30;;;;;;4209163;28;20071;-50
2021/11/09 07:37:07;;;;;;;10.32;4.68;;;15.90;84.40;;;;;;4210615;28;20070;-50
2021/11/09 07:39:29;;;;;;;9.98;5.25;;;15.80;84.30;;;;;;4226126;28;20512;-52
2021/11/09 07:41:52;;;;;;;10.68;5.30;;;15.80;83.70;;;;;;4224592;28;20048;-51
2021/11/09 07:44:14;;;;;;;11.40;5.03;;;15.70;83.70;;;;;;4210623;28;20048;-47
2021/11/09 07:46:37;;;;;;;18.75;5.85;;;15.70;83.80;;;;;;4225711;28;20047;-52
2021/11/09 07:49:00;;;;;;;12.40;4.90;;;15.60;83.60;;;;;;4225772;28;20549;-47
2021/11/09 07:51:22;;;;;;;11.02;4.93;;;15.60;83.80;;;;;;4226051;28;20100;-51
2021/11/09 07:53:47;;;;;;;8.52;4.85;;;15.60;83.80;;;;;;4225881;28;20055;-49
2021/11/09 07:56:14;;;;;;;11.95;4.60;;;15.50;83.70;;;;;;4225843;28;20058;-46
2021/11/09 07:58:42;;;;;;;12.95;4.93;;;15.50;83.50;;;;;;4225618;28;20046;-48
2021/11/09 08:01:08;;;;;;;9.98;4.85;;;15.50;83.20;;;;;;4225962;28;20062;-47
2021/11/09 08:03:36;;;;;;;12.77;4.60;;;15.40;82.90;;;;;;4225594;28;20047;-50
2021/11/09 08:06:10;;;;;;;7.97;4.45;;;15.40;83.10;;;;;;4225069;28;20044;-45
2021/11/09 08:08:38;;;;;;;8.52;4.82;;;15.40;82.80;;;;;;4225384;28;20449;-49
2021/11/09 08:11:03;;;;;;;13.27;4.40;;;15.30;82.50;;;;;;4224726;28;20548;-50
2021/11/09 08:13:25;;;;;;;12.13;4.85;;;15.30;82.60;;;;;;4209740;28;20516;-47
2021/11/09 08:15:47;;;;;;;10.88;4.63;;;15.30;82.80;;;;;;4225577;28;20050;-50
2021/11/09 08:18:13;;;;;;;10.63;4.38;;;15.30;82.50;;;;;;4225555;28;20085;-45
2021/11/09 08:20:52;;;;;;;14.30;5.03;;;15.20;82.50;;;;;;4225138;28;20064;-51
2021/11/09 08:23:14;;;;;;;10.82;4.30;;;15.20;82.60;;;;;;4225253;28;20040;-48
2021/11/09 08:25:37;;;;;;;10.18;4.68;;;15.20;82.70;;;;;;4225084;28;20043;-45
2021/11/09 08:28:02;;;;;;;7.10;4.70;;;15.20;82.60;;;;;;4225293;28;20048;-47
2021/11/09 08:30:24;;;;;;;9.27;5.10;;;15.10;82.60;;;;;;4210575;28;20097;-52
2021/11/09 08:32:48;;;;;;;5.55;3.50;;;15.10;82.50;;;;;;4225229;28;20079;-48
2021/11/09 08:35:12;;;;;;;15.05;5.55;;;15.10;82.90;;;;;;4224766;28;20565;-46
2021/11/09 08:37:34;;;;;;;9.23;5.03;;;15.10;82.90;;;;;;4225119;28;20501;-49
2021/11/09 08:39:57;;;;;;;12.07;6.22;;;15.10;82.90;;;;;;4224685;28;20528;-48
2021/11/09 08:42:24;;;;;;;11.93;5.13;;;15.10;82.80;;;;;;4224962;28;20580;-46
2021/11/09 08:44:50;;;;;;;8.38;5.00;;;15.10;82.90;;;;;;4224478;28;20058;-51
2021/11/09 08:47:16;;;;;;;11.50;5.20;;;15.00;82.80;;;;;;4225243;28;20053;-47
2021/11/09 08:49:38;;;;;;;15.90;5.22;;;15.00;82.90;;;;;;4224857;28;20067;-46
2021/11/09 08:52:05;;;;;;;14.40;5.18;;;15.00;82.70;;;;;;4223075;28;20497;-46
2021/11/09 08:54:31;;;;;;;11.20;4.45;;;15.00;82.90;;;;;;4224868;28;20047;-46
2021/11/09 08:57:17;;;;;;;16.67;6.20;;;15.00;83.10;;;;;;4218294;28;20085;-51
2021/11/09 09:05:00;;;;;;;9.98;6.00;;;15.00;83.00;;;;;;4191074;28;20052;-51
2021/11/09 09:07:22;;;;;;;10.27;5.32;;;14.90;84.00;;;;;;4190935;28;20414;-48
2021/11/09 09:09:45;;;;;;;9.73;4.97;;;14.90;84.50;;;;;;4191188;28;20553;-49
2021/11/09 09:12:08;;;;;;;12.38;5.68;;;14.90;84.40;;;;;;4191242;28;20417;-51
2021/11/09 09:14:30;;;;;;;18.00;6.38;;;14.90;84.00;;;;;;4191278;28;20456;-48
2021/11/09 09:16:54;;;;;;;10.63;5.07;;;14.90;83.80;;;;;;4206316;28;20044;-49
2021/11/09 09:19:19;;;;;;;10.95;5.47;;;14.90;83.90;;;;;;4191077;28;20052;-48
2021/11/09 09:21:45;;;;;;;10.13;3.90;;;14.90;83.80;;;;;;4190373;28;20101;-50
2021/11/09 09:24:13;;;;;;;13.50;5.60;;;14.90;84.10;;;;;;4190994;28;20055;-47
2021/11/09 09:26:39;;;;;;;11.13;6.25;;;14.90;84.00;;;;;;4191042;28;20052;-49
2021/11/09 09:29:24;;;;;;;13.38;5.55;;;14.80;83.60;;;;;;4190895;28;20041;-45
2021/11/09 09:55:54;;;;;;;9.80;5.32;;;14.80;83.80;;;;;;4181347;28;20094;-45
2021/11/09 09:58:16;;;;;;;16.00;6.60;;;14.80;83.80;;;;;;4227650;28;20493;-51
2021/11/09 10:00:39;;;;;;;11.98;6.07;;;14.80;83.80;;;;;;4227576;28;20040;-52
2021/11/09 10:03:01;;;;;;;11.10;4.63;;;14.80;83.70;;;;;;4227773;28;20043;-48
2021/11/09 10:05:25;;;;;;;12.98;5.60;;;14.80;83.60;;;;;;4227783;28;20086;-51
2021/11/09 10:07:52;;;;;;;11.38;5.78;;;14.80;83.40;;;;;;4227893;28;20048;-48
2021/11/09 10:10:17;;;;;;;12.18;5.80;;;14.80;83.30;;;;;;4227880;28;20047;-49
2021/11/09 10:12:41;;;;;;;12.18;5.43;;;14.70;83.30;;;;;;4221410;28;20055;-50
2021/11/09 10:15:09;;;;;;;10.25;4.47;;;14.70;83.30;;;;;;4222746;28;20616;-47
2021/11/09 10:17:33;;;;;;;10.65;4.80;;;14.70;83.40;;;;;;4225853;28;20044;-49
2021/11/09 10:19:57;;;;;;;12.00;5.47;;;14.70;83.30;;;;;;4227237;28;20554;-50
2021/11/09 10:22:22;;;;;;;8.93;4.47;;;14.70;83.20;;;;;;4227269;28;20135;-50
2021/11/09 10:24:51;;;;;;;11.60;4.65;;;14.70;83.20;;;;;;4227491;28;20047;-50
2021/11/09 10:27:14;;;;;;;6.90;3.47;;;14.70;83.20;;;;;;4227014;28;20490;-49
2021/11/09 10:29:40;;;;;;;11.77;5.10;;;14.70;83.40;;;;;;4226062;28;20047;-48
2021/11/09 10:32:10;;;;;;;10.02;4.80;;;14.70;83.30;;;;;;4227119;28;20824;-50
2021/11/09 10:34:32;;;;;;;12.45;4.80;;;14.70;83.30;;;;;;4227285;28;20424;-51
2021/11/09 10:37:14;;;;;;;11.68;5.28;;;14.70;83.40;;;;;;4216836;28;20052;-53
2021/11/09 10:39:36;;;;;;;10.30;4.38;;;14.70;83.30;;;;;;4210337;28;20123;-50
2021/11/09 10:42:10;;;;;;;10.73;4.80;;;14.70;83.60;;;;;;4210681;28;20048;-51
2021/11/09 10:44:32;;;;;;;13.05;4.18;;;14.70;83.60;;;;;;4209178;28;20044;-49
2021/11/09 10:47:14;;;;;;;11.10;4.47;;;14.70;83.70;;;;;;4226881;28;20042;-47
2021/11/09 10:49:54;;;;;;;9.48;3.38;;;14.70;83.70;;;;;;4226500;28;20047;-49
2021/11/09 10:52:19;;;;;;;10.90;4.80;;;14.70;83.80;;;;;;4226928;28;20128;-50
2021/11/09 10:54:48;;;;;;;12.63;4.75;;;14.70;84.10;;;;;;4226644;28;20039;-49
2021/11/09 10:57:18;;;;;;;9.57;4.88;;;14.70;84.40;;;;;;4226024;28;20052;-47
2021/11/09 10:59:50;;;;;;;10.80;5.10;;;14.70;84.80;;;;;;4226617;28;20056;-47
2021/11/09 11:05:17;;;;;;;12.88;5.10;;;14.70;85.00;;;;;;4209719;28;20102;-51
2021/11/09 11:07:51;;;;;;;16.00;6.70;;;14.70;85.20;;;;;;4208930;28;20052;-49
2021/11/09 11:10:18;;;;;;;14.32;5.85;;;14.70;85.30;;;;;;4209999;28;20509;-47
2021/11/09 11:12:41;;;;;;;13.13;6.47;;;14.70;85.00;;;;;;4209881;28;20497;-49
2021/11/09 11:15:10;;;;;;;11.75;5.28;;;14.70;84.80;;;;;;4210177;28;20036;-50
2021/11/09 11:17:38;;;;;;;16.08;6.32;;;14.70;84.80;;;;;;4226423;28;20413;-50
2021/11/09 11:20:00;;;;;;;14.68;6.13;;;14.70;84.80;;;;;;4209876;28;20113;-46
2021/11/09 11:22:24;;;;;;;15.50;7.78;;;14.70;84.70;;;;;;4222678;28;20052;-48
2021/11/09 11:24:47;;;;;;;14.75;7.45;;;14.70;84.70;;;;;;4226411;28;20486;-48
2021/11/09 11:27:10;;;;;;;14.15;7.15;;;14.70;84.70;;;;;;4226285;28;20126;-47
2021/11/09 11:29:36;;;;;;;17.38;6.90;;;14.70;84.60;;;;;;4209763;28;20482;-47
2021/11/09 11:32:00;;;;;;;13.30;6.53;;;14.70;84.60;;;;;;4210001;28;20048;-48
2021/11/09 11:34:23;;;;;;;12.60;6.82;;;14.70;84.50;;;;;;4225684;28;20043;-51
2021/11/09 11:36:46;;;;;;;17.25;7.28;;;14.70;84.50;;;;;;4226718;28;20485;-53
2021/11/09 11:39:11;;;;;;;11.15;6.43;;;14.70;84.50;;;;;;4226211;28;22126;-51
2021/11/09 11:41:35;;;;;;;14.02;6.00;;;14.70;85.40;;;;;;4225708;28;20036;-48
2021/11/09 11:44:01;;;;;;;13.40;7.03;;;14.60;84.50;;;;;;4210273;28;20655;-47
2021/11/09 11:46:53;;;;;;;11.35;5.72;;;14.70;83.80;;;;;;4226276;28;20047;-47
2021/11/09 11:49:18;;;;;;;14.45;6.50;;;14.60;84.50;;;;;;4205503;28;20051;-49
2021/11/09 11:52:01;;;;;;;15.20;6.53;;;14.60;84.40;;;;;;4225470;28;20047;-46
2021/11/09 11:54:40;;;;;;;13.13;5.55;;;14.60;84.40;;;;;;4193855;28;20055;-49
2021/11/09 11:57:03;;;;;;;18.90;6.53;;;14.60;84.30;;;;;;4206432;28;20050;-46
2021/11/09 11:59:40;;;;;;;12.45;5.50;;;14.60;84.30;;;;;;4225348;28;20051;-49
2021/11/09 12:02:05;;;;;;;12.32;5.32;;;14.60;84.10;;;;;;4211477;28;20044;-47
2021/11/09 12:04:50;;;;;;;11.43;5.18;;;14.60;84.20;;;;;;4222407;28;20512;-48
2021/11/09 12:07:14;;;;;;;12.60;6.18;;;14.60;84.20;;;;;;4224942;28;20035;-50
2021/11/09 12:09:39;;;;;;;11.77;4.97;;;14.60;84.10;;;;;;4225869;28;20055;-48
2021/11/09 12:12:30;;;;;;;13.85;5.35;;;14.70;84.10;;;;;;4225658;28;20052;-51
2021/11/09 12:14:56;;;;;;;11.23;4.90;;;14.70;84.20;;;;;;4215679;28;20135;-51
2021/11/09 12:17:31;;;;;;;11.55;5.25;;;14.70;84.20;;;;;;4223146;28;20047;-51
2021/11/09 12:19:54;;;;;;;9.63;4.45;;;14.60;84.10;;;;;;4217146;28;20456;-47
2021/11/09 12:22:17;;;;;;;13.30;5.38;;;14.70;85.10;;;;;;4207040;28;20044;-49
2021/11/09 12:24:47;;;;;;;7.97;4.15;;;14.70;84.20;;;;;;4225237;28;20080;-50
2021/11/09 12:27:10;;;;;;;14.57;5.20;;;14.70;84.20;;;;;;4224815;28;20067;-52
2021/11/09 12:29:45;;;;;;;11.95;4.18;;;14.70;84.30;;;;;;4208189;28;20047;-49
2021/11/09 12:32:30;;;;;;;8.73;3.65;;;14.70;84.30;;;;;;4208472;28;20126;-48
2021/11/09 12:35:04;;;;;;;12.63;5.15;;;14.60;84.30;;;;;;4193465;28;20056;-52
2021/11/09 12:37:26;;;;;;;11.07;5.15;;;14.70;84.40;;;;;;4191280;28;20102;-48
2021/11/09 12:39:48;;;;;;;10.93;4.72;;;14.70;84.50;;;;;;4208180;28;20097;-55
2021/11/09 12:42:10;;;;;;;8.73;4.95;;;14.60;84.50;;;;;;4191173;28;20048;-57
2021/11/09 12:44:33;;;;;;;7.97;4.85;;;14.70;84.80;;;;;;4191499;28;20110;-56
2021/11/09 12:47:08;;;;;;;11.73;4.32;;;14.70;84.90;;;;;;4191618;28;20052;-56
2021/11/09 12:49:36;;;;;;;9.63;4.13;;;14.70;85.00;;;;;;4191669;28;20044;-58
2021/11/09 12:51:59;;;;;;;9.75;4.57;;;14.70;85.00;;;;;;4191530;28;20132;-57
2021/11/09 12:54:23;;;;;;;10.95;5.65;;;14.70;85.00;;;;;;4208130;28;20058;-57
2021/11/09 12:56:47;;;;;;;10.93;4.72;;;14.70;85.10;;;;;;4192860;28;20508;-57
2021/11/09 12:59:13;;;;;;;10.40;4.45;;;14.70;85.10;;;;;;4191350;28;20044;-51
2021/11/09 13:01:42;;;;;;;10.80;4.50;;;14.70;85.10;;;;;;4191433;28;20113;-52
2021/11/09 13:04:16;;;;;;;7.20;4.20;;;14.70;85.10;;;;;;4205508;28;20056;-55
2021/11/09 13:06:45;;;;;;;7.93;3.75;;;14.70;85.10;;;;;;4222684;28;20047;-55
2021/11/09 13:09:17;;;;;;;10.00;4.25;;;14.70;85.10;;;;;;4224419;28;20476;-55
2021/11/09 13:11:43;;;;;;;10.85;5.03;;;14.70;85.20;;;;;;4224740;28;20134;-49
2021/11/09 13:14:07;;;;;;;12.38;5.13;;;14.70;85.30;;;;;;4209515;28;20044;-51
2021/11/09 13:16:52;;;;;;;7.18;2.63;;;14.60;85.20;;;;;;4208318;28;20473;-54
2021/11/09 13:19:18;;;;;;;11.38;4.43;;;14.60;85.20;;;;;;4207796;28;20123;-53
2021/11/09 21:18:55;;;;;;;12.17;5.40;;;16.40;85.50;;;;;;4152012;27;1349512;-56
2021/11/09 21:21:20;;;;;;;11.02;4.53;;;17.00;80.40;;;;;;4202869;28;20094;-55
2021/11/09 21:23:47;;;;;;;13.80;5.10;;;17.00;81.80;;;;;;4201918;28;20048;-56
2021/11/09 21:26:11;;;;;;;11.75;5.88;;;17.00;82.00;;;;;;4197308;28;20048;-54
2021/11/09 21:28:38;;;;;;;7.30;4.88;;;17.00;82.20;;;;;;4200595;28;20158;-51
2021/11/09 21:31:16;;;;;;;8.80;5.25;;;16.90;82.10;;;;;;4196247;28;20074;-55
2021/11/09 21:36:31;;;;;;;13.15;4.20;;;16.90;82.70;;;;;;4200147;28;20036;-57
2021/11/09 21:38:53;;;;;;;11.73;5.32;;;16.80;82.70;;;;;;4199077;28;20543;-56
2021/11/09 21:41:15;;;;;;;8.93;4.60;;;16.80;82.90;;;;;;4202769;28;20059;-56
2021/11/09 21:43:37;;;;;;;12.70;5.22;;;16.70;83.10;;;;;;4200651;28;20123;-54
2021/11/09 21:45:59;;;;;;;10.00;4.75;;;16.70;83.00;;;;;;4200157;28;20536;-55
2021/11/09 21:48:22;;;;;;;14.23;4.38;;;16.70;83.10;;;;;;4198419;28;20138;-56
2021/11/09 21:50:44;;;;;;;11.63;4.45;;;16.60;83.30;;;;;;4202502;28;20460;-57
2021/11/09 21:53:11;;;;;;;11.02;4.18;;;16.60;83.60;;;;;;4200624;28;20587;-56
2021/11/09 21:55:34;;;;;;;10.80;4.35;;;16.50;83.70;;;;;;4200313;28;20127;-56